KBBW

Broken Bow Municipal / Keith Glaze Field Airport

Broken Bow, Nebraska, USA
METAR KBBW 160553Z AUTO 00000KT 10SM CLR 02/M03 A3017 RMK AO2 SLP230 T00171033 10056 21011 400781078 51018
Observed Flight Rules
Dec-16 @ 05:53 UTC (an hour ago) Visual Flight Rules
Visibility Clouds
10 miles
  • Clear skies
Temperatures Readings
Current 2°C / 36°F
Dewpoint -3°C / 27°F
Humidity 70%
Altimeter 30.17" Hg
Pressure 1023 hPa
Elevation 776
METAR KBBW 160553Z AUTO 00000KT 10SM CLR 02/M03 A3017 RMK AO2 SLP230 T00171033 10056 21011 400781078 51018
Observed Flight Rules
Dec-16 @ 05:53 UTC
(an hour ago)
VFR
Clouds
  • Clear skies
Temperature Dewpoint
2°C / 36°F -3°C / 27°F
Humidity Altimeter Pressure
70% 30.17" Hg 1023 hPa